TAF Text Data
IDs:
Format:
Raw Decoded Include METAR

Data at: 2341 UTC 02 Oct 2022

KAGC 022320Z 0300/0324 02005KT P6SM SCT250